Time;durP1;ratioP1;P1;durP2;ratioP2;P2;SDS_P1;SDS_P2;PMS_P1;PMS_P2;Temp;Humidity;BMP_temperature;BMP_pressure;BME280_temperature;BME280_humidity;BME280_pressure;Samples;Min_cycle;Max_cycle;Signal;HPM_P1;HPM_P2
2022/06/21 00:02:25;;;;;;;11.30;5.43;;;;;;;;;;5058636;28;20100;-72
2022/06/21 00:04:50;;;;;;;9.73;5.60;;;;;;;;;;5060241;28;20129;-71
2022/06/21 00:07:20;;;;;;;14.33;5.63;;;;;;;;;;5060275;28;20454;-72
2022/06/21 00:09:45;;;;;;;7.85;4.78;;;;;;;;;;5064759;28;20277;-71
2022/06/21 00:12:14;;;;;;;9.25;4.68;;;;;;;;;;5058327;28;20028;-71
2022/06/21 00:14:39;;;;;;;6.93;4.55;;;;;;;;;;5055088;28;20103;-72
2022/06/21 00:17:05;;;;;;;10.90;4.88;;;;;;;;;;5041965;28;20037;-72
2022/06/21 00:19:31;;;;;;;7.15;5.03;;;;;;;;;;5059338;28;20050;-72
2022/06/21 00:21:56;;;;;;;9.73;5.22;;;;;;;;;;5055075;28;20128;-72
2022/06/21 00:24:22;;;;;;;8.53;5.43;;;;;;;;;;5061205;28;20738;-71
2022/06/21 00:26:47;;;;;;;11.90;5.10;;;;;;;;;;5060666;28;20265;-72
2022/06/21 00:29:12;;;;;;;9.00;5.35;;;;;;;;;;5062252;28;20861;-72
2022/06/21 00:31:40;;;;;;;7.93;4.47;;;;;;;;;;5054047;28;20020;-71
2022/06/21 00:34:10;;;;;;;10.45;5.00;;;;;;;;;;5056718;28;20033;-71
2022/06/21 00:36:36;;;;;;;5.07;4.30;;;;;;;;;;5060498;28;20017;-71
2022/06/21 00:39:02;;;;;;;13.38;4.72;;;;;;;;;;5058311;28;20495;-71
2022/06/21 00:41:42;;;;;;;7.60;4.78;;;;;;;;;;5039047;28;20505;-72
2022/06/21 00:44:10;;;;;;;6.43;4.68;;;;;;;;;;5061236;28;20139;-71
2022/06/21 00:46:46;;;;;;;5.97;4.57;;;;;;;;;;5048456;28;20477;-72
2022/06/21 00:49:23;;;;;;;4.70;4.30;;;;;;;;;;5057779;28;20486;-72
2022/06/21 00:51:51;;;;;;;10.75;5.07;;;;;;;;;;5061973;28;20459;-72
2022/06/21 00:54:16;;;;;;;8.45;4.85;;;;;;;;;;5042545;28;20406;-71
2022/06/21 00:56:45;;;;;;;8.27;4.60;;;;;;;;;;5064573;28;20024;-71
2022/06/21 00:59:15;;;;;;;9.70;4.60;;;;;;;;;;5045461;28;20031;-71
2022/06/21 01:01:40;;;;;;;9.98;5.28;;;;;;;;;;5060204;28;20498;-72
2022/06/21 01:04:11;;;;;;;10.33;4.67;;;;;;;;;;5063784;28;20028;-72
2022/06/21 01:06:39;;;;;;;11.30;5.28;;;;;;;;;;5067942;28;20270;-72
2022/06/21 01:09:07;;;;;;;8.52;5.65;;;;;;;;;;5067117;28;20037;-72
2022/06/21 01:11:34;;;;;;;7.32;5.90;;;;;;;;;;5062624;28;20476;-72
2022/06/21 01:14:00;;;;;;;10.00;5.80;;;;;;;;;;5066017;28;20037;-72
2022/06/21 01:16:27;;;;;;;7.32;4.88;;;;;;;;;;5045991;28;20021;-72
2022/06/21 01:18:52;;;;;;;7.28;5.00;;;;;;;;;;5064487;28;20438;-72
2022/06/21 01:21:18;;;;;;;7.20;5.32;;;;;;;;;;5064839;28;20025;-72
2022/06/21 01:24:16;;;;;;;8.52;4.65;;;;;;;;;;5057813;28;20066;-72
2022/06/21 01:26:49;;;;;;;5.60;5.00;;;;;;;;;;5014477;28;20040;-71
2022/06/21 01:29:17;;;;;;;11.68;4.68;;;;;;;;;;5061888;28;20422;-72
2022/06/21 01:31:42;;;;;;;8.65;5.15;;;;;;;;;;5062311;28;20029;-72
2022/06/21 01:34:21;;;;;;;8.70;5.20;;;;;;;;;;5067975;28;20062;-72
2022/06/21 01:36:47;;;;;;;11.38;5.78;;;;;;;;;;5062159;28;20027;-72
2022/06/21 01:39:16;;;;;;;6.22;4.68;;;;;;;;;;5042984;28;20046;-71
2022/06/21 01:41:45;;;;;;;5.70;4.85;;;;;;;;;;5061938;28;20028;-71
2022/06/21 01:44:13;;;;;;;6.70;4.50;;;;;;;;;;5065482;28;20025;-71
2022/06/21 01:46:38;;;;;;;9.52;5.07;;;;;;;;;;5062206;28;20032;-71
2022/06/21 01:49:10;;;;;;;6.80;4.50;;;;;;;;;;5042548;28;20078;-72
2022/06/21 01:51:37;;;;;;;6.22;5.22;;;;;;;;;;5057479;28;20909;-72
2022/06/21 01:54:04;;;;;;;8.70;5.85;;;;;;;;;;5066208;28;20032;-71
2022/06/21 01:56:32;;;;;;;7.03;4.85;;;;;;;;;;5058048;28;20018;-71
2022/06/21 01:59:01;;;;;;;6.55;5.65;;;;;;;;;;5058313;28;20056;-72
2022/06/21 02:01:31;;;;;;;9.82;5.60;;;;;;;;;;5062889;28;20021;-72
2022/06/21 02:03:57;;;;;;;12.20;5.90;;;;;;;;;;5061970;28;20090;-72
2022/06/21 02:06:24;;;;;;;12.23;5.82;;;;;;;;;;5062367;28;20458;-72
2022/06/21 02:08:56;;;;;;;8.15;5.07;;;;;;;;;;5060876;28;20588;-71
2022/06/21 02:11:27;;;;;;;10.27;5.53;;;;;;;;;;5066405;28;20099;-72
2022/06/21 02:16:39;;;;;;;13.43;6.68;;;;;;;;;;5061198;28;20032;-72
2022/06/21 02:19:20;;;;;;;11.70;5.50;;;;;;;;;;5064822;28;20020;-72
2022/06/21 02:21:45;;;;;;;12.57;5.97;;;;;;;;;;5059858;28;20301;-72
2022/06/21 02:24:12;;;;;;;9.00;6.67;;;;;;;;;;5061037;28;20045;-72
2022/06/21 02:26:38;;;;;;;8.05;6.55;;;;;;;;;;5062364;28;20265;-72
2022/06/21 02:29:03;;;;;;;11.43;6.20;;;;;;;;;;5065592;28;20050;-72
2022/06/21 02:31:28;;;;;;;9.80;5.70;;;;;;;;;;5059016;28;20419;-71
2022/06/21 02:33:56;;;;;;;9.65;5.32;;;;;;;;;;5056857;28;20435;-72
2022/06/21 02:36:27;;;;;;;7.07;5.63;;;;;;;;;;5064873;28;20036;-72
2022/06/21 02:38:54;;;;;;;6.50;4.95;;;;;;;;;;5057311;28;20146;-71
2022/06/21 02:41:25;;;;;;;9.55;5.63;;;;;;;;;;5062603;28;20044;-71
2022/06/21 02:43:53;;;;;;;8.30;5.20;;;;;;;;;;5060672;28;20475;-71
2022/06/21 02:46:27;;;;;;;10.20;6.68;;;;;;;;;;5063958;28;20040;-71
2022/06/21 02:48:56;;;;;;;8.07;6.00;;;;;;;;;;5060687;28;20070;-71
2022/06/21 02:51:24;;;;;;;6.50;5.72;;;;;;;;;;5055940;28;20127;-71
2022/06/21 02:54:22;;;;;;;6.95;5.45;;;;;;;;;;5060114;28;20230;-71
2022/06/21 02:56:51;;;;;;;8.13;5.40;;;;;;;;;;5008939;28;20623;-71
2022/06/21 02:59:17;;;;;;;7.57;5.18;;;;;;;;;;5059939;28;20040;-71
2022/06/21 03:01:46;;;;;;;8.38;4.90;;;;;;;;;;5061922;28;20025;-71
2022/06/21 03:04:16;;;;;;;13.23;6.00;;;;;;;;;;5057635;28;20112;-72
2022/06/21 03:06:41;;;;;;;6.97;5.07;;;;;;;;;;5052689;28;20017;-71
2022/06/21 03:09:09;;;;;;;5.40;4.87;;;;;;;;;;5061494;28;20052;-71
2022/06/21 03:11:36;;;;;;;11.93;5.45;;;;;;;;;;5060903;28;20276;-71
2022/06/21 03:14:03;;;;;;;6.82;5.15;;;;;;;;;;5061363;28;20024;-71
2022/06/21 03:16:28;;;;;;;6.35;5.15;;;;;;;;;;5062044;28;20107;-71
2022/06/21 03:18:56;;;;;;;9.02;4.88;;;;;;;;;;5061169;28;20020;-71
2022/06/21 03:21:32;;;;;;;9.38;5.40;;;;;;;;;;5060431;28;20056;-71
2022/06/21 03:23:58;;;;;;;7.65;5.53;;;;;;;;;;5057779;28;20051;-71
2022/06/21 03:26:26;;;;;;;11.88;5.30;;;;;;;;;;5061061;28;20025;-71
2022/06/21 03:28:52;;;;;;;5.85;4.97;;;;;;;;;;5060657;28;20245;-71
2022/06/21 03:31:20;;;;;;;7.82;5.43;;;;;;;;;;5061065;28;20486;-71
2022/06/21 03:33:47;;;;;;;9.38;5.38;;;;;;;;;;5060566;28;20024;-71
2022/06/21 03:36:13;;;;;;;6.57;4.93;;;;;;;;;;5062396;28;20068;-71
2022/06/21 03:38:40;;;;;;;12.20;5.30;;;;;;;;;;5059221;28;20536;-71
2022/06/21 03:43:57;;;;;;;11.30;5.60;;;;;;;;;;5061437;28;20023;-72
2022/06/21 03:46:25;;;;;;;8.50;4.78;;;;;;;;;;5039525;28;20060;-71
2022/06/21 03:48:53;;;;;;;6.68;5.03;;;;;;;;;;5059400;28;20444;-71
2022/06/21 03:51:20;;;;;;;10.18;4.95;;;;;;;;;;5056924;28;20061;-71
2022/06/21 03:53:50;;;;;;;7.43;5.22;;;;;;;;;;5058087;28;20028;-71
2022/06/21 03:56:25;;;;;;;8.25;6.07;;;;;;;;;;5056374;28;20028;-71
2022/06/21 03:58:57;;;;;;;12.93;7.22;;;;;;;;;;5058089;28;20028;-72
2022/06/21 04:01:28;;;;;;;8.80;5.75;;;;;;;;;;5055332;28;20029;-72
2022/06/21 04:03:57;;;;;;;8.50;6.10;;;;;;;;;;5057959;28;20021;-71
2022/06/21 04:06:25;;;;;;;10.40;6.07;;;;;;;;;;5058871;28;20065;-72
2022/06/21 04:08:53;;;;;;;8.10;5.55;;;;;;;;;;5063323;28;20028;-71
2022/06/21 04:11:21;;;;;;;11.60;6.85;;;;;;;;;;5056858;28;20029;-71
2022/06/21 04:13:51;;;;;;;13.00;6.70;;;;;;;;;;5056390;28;20036;-71
2022/06/21 04:16:16;;;;;;;12.52;6.38;;;;;;;;;;5059914;28;20916;-71
2022/06/21 04:19:03;;;;;;;10.85;6.40;;;;;;;;;;5063333;28;20020;-71
2022/06/21 04:21:44;;;;;;;9.95;5.90;;;;;;;;;;5060174;28;20104;-71
2022/06/21 04:24:20;;;;;;;8.82;6.47;;;;;;;;;;5063111;28;20020;-71
2022/06/21 04:26:49;;;;;;;13.60;6.65;;;;;;;;;;5058277;28;20512;-71
2022/06/21 04:29:26;;;;;;;10.15;6.20;;;;;;;;;;5061712;28;20029;-71
2022/06/21 04:31:55;;;;;;;9.27;6.25;;;;;;;;;;5059756;28;20557;-71
2022/06/21 04:34:24;;;;;;;8.00;5.88;;;;;;;;;;5060072;28;20033;-71
2022/06/21 04:36:54;;;;;;;10.27;6.78;;;;;;;;;;5059030;28;20031;-71
2022/06/21 04:39:38;;;;;;;10.02;6.38;;;;;;;;;;5057086;28;20466;-70
2022/06/21 04:42:07;;;;;;;9.02;6.50;;;;;;;;;;5055575;28;20091;-71
2022/06/21 04:44:37;;;;;;;11.48;6.18;;;;;;;;;;5041041;28;20191;-69
2022/06/21 04:47:05;;;;;;;7.95;6.38;;;;;;;;;;5056212;28;20028;-73
2022/06/21 04:49:36;;;;;;;7.80;5.82;;;;;;;;;;5056509;28;20033;-71
2022/06/21 04:52:04;;;;;;;11.27;6.28;;;;;;;;;;5054040;28;20482;-74
2022/06/21 04:54:31;;;;;;;9.20;6.50;;;;;;;;;;5062770;28;20055;-75
2022/06/21 04:57:05;;;;;;;9.55;6.63;;;;;;;;;;5055797;28;20143;-72
2022/06/21 04:59:42;;;;;;;11.82;7.18;;;;;;;;;;5055979;28;20028;-72
2022/06/21 05:02:13;;;;;;;16.52;8.25;;;;;;;;;;5055649;28;20032;-69
2022/06/21 05:04:40;;;;;;;13.80;8.50;;;;;;;;;;5059133;28;20027;-69
2022/06/21 05:07:07;;;;;;;12.70;7.93;;;;;;;;;;5041866;28;20100;-72
2022/06/21 05:09:33;;;;;;;15.70;8.77;;;;;;;;;;5067526;28;20031;-73
2022/06/21 05:12:00;;;;;;;16.80;8.82;;;;;;;;;;5060456;28;20099;-73
2022/06/21 05:14:27;;;;;;;17.27;9.55;;;;;;;;;;5060669;28;20398;-72
2022/06/21 05:16:52;;;;;;;15.68;9.23;;;;;;;;;;5056096;28;20021;-74
2022/06/21 05:19:19;;;;;;;15.15;8.10;;;;;;;;;;5053102;28;20035;-73
2022/06/21 05:21:45;;;;;;;16.40;8.45;;;;;;;;;;5052597;28;20021;-72
2022/06/21 05:24:11;;;;;;;13.45;8.57;;;;;;;;;;5062099;28;20339;-73
2022/06/21 05:26:38;;;;;;;13.77;7.63;;;;;;;;;;5060831;28;20082;-73
2022/06/21 05:29:22;;;;;;;15.95;8.45;;;;;;;;;;5056270;28;20560;-74
2022/06/21 05:31:48;;;;;;;19.35;8.80;;;;;;;;;;5064242;28;20489;-74
2022/06/21 05:34:16;;;;;;;11.48;7.50;;;;;;;;;;5058487;28;20526;-71
2022/06/21 05:36:48;;;;;;;14.85;8.05;;;;;;;;;;5054045;28;20016;-73
2022/06/21 05:39:20;;;;;;;20.63;9.35;;;;;;;;;;5060757;28;20025;-74
2022/06/21 05:41:46;;;;;;;13.57;6.32;;;;;;;;;;5064708;28;20017;-74
2022/06/21 05:44:23;;;;;;;13.07;7.82;;;;;;;;;;5061039;28;20031;-72
2022/06/21 05:46:50;;;;;;;15.65;6.13;;;;;;;;;;5057150;28;20075;-76
2022/06/21 05:49:19;;;;;;;15.02;6.07;;;;;;;;;;5063011;28;20036;-73
2022/06/21 05:51:44;;;;;;;8.60;5.70;;;;;;;;;;5057783;28;20031;-74
2022/06/21 05:54:12;;;;;;;12.77;6.03;;;;;;;;;;5057474;28;20444;-75
2022/06/21 05:56:38;;;;;;;10.80;5.40;;;;;;;;;;5059716;28;20055;-73
2022/06/21 05:59:04;;;;;;;10.75;5.60;;;;;;;;;;5065387;28;20032;-74
2022/06/21 06:01:34;;;;;;;10.52;5.15;;;;;;;;;;5060987;28;20025;-73
2022/06/21 06:04:07;;;;;;;7.80;4.40;;;;;;;;;;5064509;28;20023;-75
2022/06/21 06:06:35;;;;;;;10.82;5.32;;;;;;;;;;5062079;28;20351;-73
2022/06/21 06:09:03;;;;;;;13.48;4.43;;;;;;;;;;5061499;28;20151;-75
2022/06/21 06:11:57;;;;;;;9.07;4.03;;;;;;;;;;5065226;28;20031;-75
2022/06/21 06:14:17;;;;;;;7.55;3.65;;;;;;;;;;5061604;28;20035;-75
2022/06/21 06:16:42;;;;;;;9.18;3.83;;;;;;;;;;5058102;28;20028;-75
2022/06/21 06:19:17;;;;;;;6.55;3.30;;;;;;;;;;5063264;28;20083;-75
2022/06/21 06:21:48;;;;;;;8.57;3.92;;;;;;;;;;5060242;28;20070;-75
2022/06/21 06:24:28;;;;;;;8.63;3.50;;;;;;;;;;5054711;28;20032;-74
2022/06/21 06:26:56;;;;;;;8.75;3.13;;;;;;;;;;5063778;28;20035;-74
2022/06/21 06:29:27;;;;;;;16.10;4.32;;;;;;;;;;5058418;28;20364;-74
2022/06/21 06:32:02;;;;;;;9.88;3.40;;;;;;;;;;5059176;28;20462;-73
2022/06/21 06:34:29;;;;;;;9.70;3.03;;;;;;;;;;5059654;28;20028;-74
2022/06/21 06:36:56;;;;;;;6.13;3.38;;;;;;;;;;5054768;28;20021;-74
2022/06/21 06:39:25;;;;;;;9.77;3.75;;;;;;;;;;5062384;28;20446;-74
2022/06/21 06:41:51;;;;;;;8.43;3.92;;;;;;;;;;5059142;28;20367;-73
2022/06/21 06:44:16;;;;;;;8.60;4.40;;;;;;;;;;5060595;28;20343;-72
2022/06/21 06:46:48;;;;;;;9.18;4.15;;;;;;;;;;5055102;28;20489;-73
2022/06/21 06:49:19;;;;;;;8.40;3.72;;;;;;;;;;5063307;28;20050;-75
2022/06/21 06:51:47;;;;;;;8.07;4.28;;;;;;;;;;5055661;28;20032;-72
2022/06/21 06:54:17;;;;;;;10.45;3.88;;;;;;;;;;5064790;28;20044;-74
2022/06/21 06:56:50;;;;;;;5.38;3.90;;;;;;;;;;5028711;28;20025;-75
2022/06/21 06:59:16;;;;;;;11.60;4.80;;;;;;;;;;5056457;28;20013;-74
2022/06/21 07:01:44;;;;;;;7.65;3.95;;;;;;;;;;5065983;28;20052;-74
2022/06/21 07:04:11;;;;;;;8.25;3.92;;;;;;;;;;5060025;28;20096;-73
2022/06/21 07:06:39;;;;;;;7.13;4.22;;;;;;;;;;5060693;28;20111;-74
2022/06/21 07:09:16;;;;;;;7.63;4.05;;;;;;;;;;5062152;28;20068;-73
2022/06/21 07:11:41;;;;;;;8.05;3.47;;;;;;;;;;5060709;28;20231;-73
2022/06/21 07:14:15;;;;;;;5.33;3.80;;;;;;;;;;5057586;28;20029;-72
2022/06/21 07:16:41;;;;;;;9.52;4.10;;;;;;;;;;5055992;28;20277;-73
2022/06/21 07:19:08;;;;;;;10.00;3.83;;;;;;;;;;5063703;28;20584;-75
2022/06/21 07:21:33;;;;;;;7.30;3.63;;;;;;;;;;5059473;28;20025;-73
2022/06/21 07:23:59;;;;;;;8.60;3.72;;;;;;;;;;5061614;28;20051;-72
2022/06/21 07:26:31;;;;;;;7.05;3.38;;;;;;;;;;5061740;28;20038;-72
2022/06/21 07:29:12;;;;;;;8.52;3.15;;;;;;;;;;5039689;28;20024;-71
2022/06/21 07:31:40;;;;;;;7.60;3.15;;;;;;;;;;5053530;28;20474;-71
2022/06/21 07:34:31;;;;;;;7.82;3.28;;;;;;;;;;5061185;28;20489;-71
2022/06/21 07:37:05;;;;;;;6.85;3.00;;;;;;;;;;5030515;28;20041;-72
2022/06/21 07:39:33;;;;;;;10.40;3.38;;;;;;;;;;5059478;28;20032;-71
2022/06/21 07:42:17;;;;;;;5.10;3.08;;;;;;;;;;5056684;28;20097;-72
2022/06/21 07:44:49;;;;;;;7.25;3.95;;;;;;;;;;5051184;28;20059;-72
2022/06/21 07:47:17;;;;;;;6.90;3.42;;;;;;;;;;5056630;28;20035;-73
2022/06/21 07:49:46;;;;;;;6.20;3.03;;;;;;;;;;5060479;28;20119;-71
2022/06/21 07:52:16;;;;;;;4.05;2.33;;;;;;;;;;5064899;28;20485;-71
2022/06/21 07:54:44;;;;;;;5.15;2.55;;;;;;;;;;5056675;28;20066;-73
2022/06/21 07:57:12;;;;;;;7.22;2.92;;;;;;;;;;5061889;28;20024;-71
2022/06/21 07:59:39;;;;;;;7.30;2.60;;;;;;;;;;5055811;28;20485;-71
2022/06/21 08:07:46;;;;;;;6.72;2.50;;;;;;;;;;5057346;28;20486;-74
2022/06/21 08:10:20;;;;;;;5.68;2.20;;;;;;;;;;5040365;28;20024;-74
2022/06/21 08:12:45;;;;;;;;;;;;;;;;;;5060502;28;20482;-73
2022/06/21 08:15:10;;;;;;;3.72;2.00;;;;;;;;;;5058763;28;20390;-73
2022/06/21 08:17:39;;;;;;;4.03;1.83;;;;;;;;;;5040550;28;20060;-74
2022/06/21 08:20:13;;;;;;;5.78;2.08;;;;;;;;;;5051294;28;20815;-72
2022/06/21 08:22:47;;;;;;;8.98;2.47;;;;;;;;;;5058395;28;20048;-74
2022/06/21 08:25:22;;;;;;;1.73;1.42;;;;;;;;;;5058564;28;20097;-73
2022/06/21 08:27:47;;;;;;;6.07;2.22;;;;;;;;;;5057431;28;20027;-77
2022/06/21 08:30:16;;;;;;;5.95;2.03;;;;;;;;;;5060836;28;20036;-73
2022/06/21 08:32:57;;;;;;;3.45;2.10;;;;;;;;;;5052677;28;20063;-74
2022/06/21 08:35:23;;;;;;;6.65;2.05;;;;;;;;;;5063993;28;20035;-71
2022/06/21 08:37:52;;;;;;;5.93;2.20;;;;;;;;;;5059609;28;20021;-73
2022/06/21 08:40:39;;;;;;;5.78;2.25;;;;;;;;;;5058545;28;20129;-73
2022/06/21 08:43:23;;;;;;;3.50;1.77;;;;;;;;;;5056311;28;20025;-73
2022/06/21 08:46:03;;;;;;;5.82;1.83;;;;;;;;;;5056620;28;20025;-74
2022/06/21 08:48:41;;;;;;;2.10;1.58;;;;;;;;;;5064094;28;20394;-73
2022/06/21 08:51:17;;;;;;;5.68;2.28;;;;;;;;;;5058764;28;20028;-73
2022/06/21 08:54:01;;;;;;;5.45;1.92;;;;;;;;;;5051719;28;20584;-74
2022/06/21 08:56:30;;;;;;;4.82;2.00;;;;;;;;;;5043310;28;20397;-74
2022/06/21 08:59:06;;;;;;;4.97;1.92;;;;;;;;;;5055243;28;20711;-73
2022/06/21 09:01:37;;;;;;;2.92;1.70;;;;;;;;;;5055635;28;20048;-73
2022/06/21 09:04:08;;;;;;;3.65;1.60;;;;;;;;;;5060826;28;20082;-75
2022/06/21 09:06:43;;;;;;;5.60;1.90;;;;;;;;;;5062294;28;20427;-74
2022/06/21 09:09:17;;;;;;;3.33;1.55;;;;;;;;;;5062782;28;20020;-74
2022/06/21 09:11:45;;;;;;;9.10;1.90;;;;;;;;;;5048368;28;20017;-74
2022/06/21 09:14:29;;;;;;;1.52;1.33;;;;;;;;;;5065379;28;20083;-74
2022/06/21 09:16:54;;;;;;;2.97;1.48;;;;;;;;;;5065094;28;20024;-73
2022/06/21 09:19:23;;;;;;;5.55;1.48;;;;;;;;;;5066439;28;20020;-74
2022/06/21 09:21:53;;;;;;;10.60;1.60;;;;;;;;;;5057633;28;20112;-73
2022/06/21 09:24:27;;;;;;;5.78;2.08;;;;;;;;;;5061287;28;20033;-72
2022/06/21 09:27:01;;;;;;;5.38;1.30;;;;;;;;;;5057291;28;20584;-74
2022/06/21 09:29:26;;;;;;;;;;;;;;;;;;5059202;28;20082;-74
2022/06/21 09:31:51;;;;;;;4.40;2.25;;;;;;;;;;5051622;28;20015;-75
2022/06/21 09:34:36;;;;;;;3.08;1.85;;;;;;;;;;5041584;28;20021;-74
2022/06/21 09:37:01;;;;;;;;;;;;;;;;;;5058096;28;20024;-74
2022/06/21 09:39:32;;;;;;;5.78;1.83;;;;;;;;;;5043304;28;20237;-73
2022/06/21 09:42:20;;;;;;;5.57;1.65;;;;;;;;;;5056680;28;20530;-74
2022/06/21 09:45:12;;;;;;;4.18;1.15;;;;;;;;;;5035473;28;20029;-74
2022/06/21 09:47:45;;;;;;;3.03;1.48;;;;;;;;;;5054666;28;20558;-74
2022/06/21 09:50:18;;;;;;;5.63;1.75;;;;;;;;;;5062142;28;20135;-74
2022/06/21 09:52:58;;;;;;;4.93;1.95;;;;;;;;;;5058112;28;20020;-75
2022/06/21 09:55:26;;;;;;;2.85;1.58;;;;;;;;;;5056236;28;20679;-74
2022/06/21 09:57:54;;;;;;;7.47;2.28;;;;;;;;;;5065307;28;20042;-74
2022/06/21 10:00:30;;;;;;;3.80;1.27;;;;;;;;;;5063769;28;20021;-75
2022/06/21 10:03:07;;;;;;;1.83;1.10;;;;;;;;;;5063547;28;20017;-70
2022/06/21 10:05:51;;;;;;;6.15;1.20;;;;;;;;;;5056137;28;20528;-73
2022/06/21 10:08:22;;;;;;;4.88;1.40;;;;;;;;;;5061493;28;20060;-73
2022/06/21 10:10:58;;;;;;;4.82;1.70;;;;;;;;;;5058487;28;20120;-72
2022/06/21 10:13:42;;;;;;;1.58;1.40;;;;;;;;;;5065799;28;20043;-70
2022/06/21 10:16:24;;;;;;;2.95;1.50;;;;;;;;;;5058708;28;20028;-73
2022/06/21 10:18:55;;;;;;;4.68;1.70;;;;;;;;;;5058744;28;20470;-73
2022/06/21 10:21:39;;;;;;;3.17;1.80;;;;;;;;;;5062369;28;20052;-73
2022/06/21 10:24:24;;;;;;;3.92;1.60;;;;;;;;;;5061755;28;20067;-75
2022/06/21 10:26:50;;;;;;;7.07;2.22;;;;;;;;;;5060486;28;20055;-77
2022/06/21 10:29:21;;;;;;;4.15;1.83;;;;;;;;;;5064855;28;20450;-72
2022/06/21 10:31:50;;;;;;;3.88;2.17;;;;;;;;;;5061614;28;20063;-69
2022/06/21 10:34:18;;;;;;;9.57;1.75;;;;;;;;;;5046202;28;20078;-72
2022/06/21 10:37:06;;;;;;;4.88;1.98;;;;;;;;;;5061099;28;20025;-71
2022/06/21 10:39:35;;;;;;;4.35;2.03;;;;;;;;;;5057279;28;20079;-72
2022/06/21 10:45:21;;;;;;;5.13;1.58;;;;;;;;;;5058800;28;20038;-70
2022/06/21 10:47:55;;;;;;;3.10;2.30;;;;;;;;;;5055785;28;20024;-70
2022/06/21 10:50:23;;;;;;;5.28;1.98;;;;;;;;;;5058577;28;20033;-71
2022/06/21 10:53:05;;;;;;;4.50;2.50;;;;;;;;;;5068185;28;20040;-71
2022/06/21 10:55:50;;;;;;;2.33;1.50;;;;;;;;;;5058660;28;20037;-72
2022/06/21 10:58:28;;;;;;;5.72;1.77;;;;;;;;;;5043269;28;20471;-71
2022/06/21 11:01:17;;;;;;;5.32;2.17;;;;;;;;;;5056144;28;20024;-73
2022/06/21 11:03:54;;;;;;;3.78;1.48;;;;;;;;;;5062507;28;20017;-72
2022/06/21 11:06:24;;;;;;;5.32;1.70;;;;;;;;;;5043782;28;20070;-72
2022/06/21 11:08:58;;;;;;;4.25;1.92;;;;;;;;;;5057087;28;20138;-70
2022/06/21 11:11:30;;;;;;;3.72;1.38;;;;;;;;;;5058375;28;20044;-72
2022/06/21 11:13:58;;;;;;;5.57;1.42;;;;;;;;;;5060055;28;20024;-72
2022/06/21 11:16:49;;;;;;;4.20;2.00;;;;;;;;;;5054554;28;20024;-73
2022/06/21 11:19:26;;;;;;;4.88;1.52;;;;;;;;;;5029046;28;20067;-71
2022/06/21 11:22:14;;;;;;;1.70;1.13;;;;;;;;;;5060961;28;20016;-70
2022/06/21 11:24:52;;;;;;;7.18;1.35;;;;;;;;;;5007299;28;20039;-71
2022/06/21 11:27:36;;;;;;;4.10;1.42;;;;;;;;;;5050459;28;20070;-71
2022/06/21 11:30:16;;;;;;;3.72;1.23;;;;;;;;;;5059230;28;20024;-71
2022/06/21 11:32:48;;;;;;;1.60;1.50;;;;;;;;;;5053179;28;20029;-71
2022/06/21 11:35:18;;;;;;;4.85;1.33;;;;;;;;;;5060615;28;20033;-73
2022/06/21 11:37:53;;;;;;;2.03;1.30;;;;;;;;;;5056797;28;20074;-72
2022/06/21 11:40:18;;;;;;;3.20;1.83;;;;;;;;;;5053449;28;20172;-74
2022/06/21 11:42:49;;;;;;;2.90;1.30;;;;;;;;;;5061926;28;20442;-71
2022/06/21 11:45:32;;;;;;;2.67;1.20;;;;;;;;;;5058625;28;20036;-72
2022/06/21 11:48:00;;;;;;;5.88;1.80;;;;;;;;;;5059619;28;20024;-72
2022/06/21 11:50:30;;;;;;;4.32;1.60;;;;;;;;;;5058129;28;20048;-72
2022/06/21 11:52:56;;;;;;;3.13;1.50;;;;;;;;;;5058532;28;20091;-70
2022/06/21 11:55:29;;;;;;;11.38;1.92;;;;;;;;;;5065472;28;20112;-70
2022/06/21 11:57:54;;;;;;;2.88;1.25;;;;;;;;;;5062157;28;20051;-71
2022/06/21 12:00:39;;;;;;;6.33;1.73;;;;;;;;;;5057391;28;20765;-71
2022/06/21 12:03:10;;;;;;;4.28;1.40;;;;;;;;;;5056625;28;20033;-72
2022/06/21 12:05:53;;;;;;;7.35;1.90;;;;;;;;;;5062885;28;20025;-72
2022/06/21 12:08:22;;;;;;;4.45;1.58;;;;;;;;;;5057767;28;20070;-73
2022/06/21 12:10:49;;;;;;;4.03;1.42;;;;;;;;;;5060262;28;20484;-74
2022/06/21 12:13:33;;;;;;;4.35;1.48;;;;;;;;;;5050300;28;20031;-71
2022/06/21 12:16:17;;;;;;;6.03;1.90;;;;;;;;;;5051760;28;20027;-71
2022/06/21 12:18:47;;;;;;;9.65;1.80;;;;;;;;;;5061962;28;20494;-72
2022/06/21 12:21:14;;;;;;;5.18;1.63;;;;;;;;;;5057433;28;20021;-72
2022/06/21 12:23:44;;;;;;;5.90;2.47;;;;;;;;;;5060289;28;20027;-73
2022/06/21 12:26:12;;;;;;;2.10;1.70;;;;;;;;;;5053226;28;20026;-72
2022/06/21 12:28:39;;;;;;;4.55;1.73;;;;;;;;;;5061386;28;20134;-72
2022/06/21 12:31:16;;;;;;;4.88;2.03;;;;;;;;;;5061821;28;20347;-73
2022/06/21 12:33:43;;;;;;;5.00;1.83;;;;;;;;;;5055636;28;20028;-72
2022/06/21 12:36:13;;;;;;;5.65;2.10;;;;;;;;;;5053100;28;20040;-72
2022/06/21 12:39:05;;;;;;;4.25;1.90;;;;;;;;;;5066887;28;20385;-72
2022/06/21 12:41:38;;;;;;;2.10;1.30;;;;;;;;;;5058150;28;20491;-71
2022/06/21 12:44:23;;;;;;;3.67;1.38;;;;;;;;;;5059389;28;20498;-73
2022/06/21 12:46:55;;;;;;;2.45;0.93;;;;;;;;;;5052522;28;20138;-72
2022/06/21 12:49:39;;;;;;;6.05;1.70;;;;;;;;;;5063790;28;20481;-72
2022/06/21 12:52:21;;;;;;;5.40;1.48;;;;;;;;;;5053159;28;20087;-71
2022/06/21 12:54:54;;;;;;;9.07;1.20;;;;;;;;;;5058452;28;20034;-72
2022/06/21 12:57:32;;;;;;;6.93;1.80;;;;;;;;;;5057710;28;20039;-74
2022/06/21 13:00:07;;;;;;;3.42;1.20;;;;;;;;;;5050202;28;20016;-70
2022/06/21 13:02:52;;;;;;;4.03;1.55;;;;;;;;;;5058522;28;20271;-72
2022/06/21 13:05:17;;;;;;;3.42;1.55;;;;;;;;;;5059780;28;20026;-72
2022/06/21 13:08:08;;;;;;;4.43;1.73;;;;;;;;;;5057681;28;20066;-70
2022/06/21 13:10:33;;;;;;;3.65;1.80;;;;;;;;;;5055497;28;20036;-72
2022/06/21 13:13:04;;;;;;;7.30;2.05;;;;;;;;;;5063785;28;20035;-73
2022/06/21 13:15:50;;;;;;;5.85;1.67;;;;;;;;;;5056880;28;20025;-73
2022/06/21 13:18:21;;;;;;;4.32;1.60;;;;;;;;;;5050662;28;20041;-70
2022/06/21 13:20:55;;;;;;;1.55;1.20;;;;;;;;;;5056543;28;20162;-70
2022/06/21 13:23:26;;;;;;;4.20;1.75;;;;;;;;;;5059571;28;20022;-71
2022/06/21 13:25:56;;;;;;;4.57;1.67;;;;;;;;;;5057722;28;20024;-70
2022/06/21 13:28:33;;;;;;;3.90;1.40;;;;;;;;;;5061475;28;20071;-73
2022/06/21 13:31:11;;;;;;;4.55;1.73;;;;;;;;;;5052005;28;20488;-73
2022/06/21 13:33:37;;;;;;;4.65;1.70;;;;;;;;;;5060296;28;20071;-74
2022/06/21 13:36:13;;;;;;;4.15;1.73;;;;;;;;;;5053188;28;20020;-73
2022/06/21 13:38:39;;;;;;;5.18;1.52;;;;;;;;;;5063775;28;20044;-72
2022/06/21 13:44:06;;;;;;;3.17;1.20;;;;;;;;;;5059888;28;20059;-73
2022/06/21 13:46:34;;;;;;;4.05;1.70;;;;;;;;;;5055416;28;20076;-73
2022/06/21 13:49:02;;;;;;;4.38;1.98;;;;;;;;;;5059634;28;20400;-72
2022/06/21 13:51:27;;;;;;;6.63;1.60;;;;;;;;;;5056464;28;20495;-72
2022/06/21 13:53:57;;;;;;;8.77;1.80;;;;;;;;;;5055782;28;20029;-73
2022/06/21 13:56:46;;;;;;;5.18;1.40;;;;;;;;;;5061340;28;20128;-72
2022/06/21 13:59:23;;;;;;;5.85;2.28;;;;;;;;;;5064994;28;20751;-71
2022/06/21 14:01:51;;;;;;;5.45;1.65;;;;;;;;;;5062565;28;20036;-73
2022/06/21 14:04:17;;;;;;;3.70;1.33;;;;;;;;;;5062026;28;20021;-72
2022/06/21 14:06:45;;;;;;;3.28;1.40;;;;;;;;;;5060107;28;20017;-72
2022/06/21 14:09:13;;;;;;;3.50;1.25;;;;;;;;;;5066263;28;20059;-72
2022/06/21 14:11:38;;;;;;;4.55;1.50;;;;;;;;;;5059882;28;20031;-73
2022/06/21 14:14:07;;;;;;;7.35;2.33;;;;;;;;;;5062682;28;20036;-72
2022/06/21 14:16:36;;;;;;;2.63;1.00;;;;;;;;;;5060115;28;20366;-72
2022/06/21 14:19:05;;;;;;;1.73;1.20;;;;;;;;;;5054929;28;20090;-72
2022/06/21 14:21:46;;;;;;;3.55;1.40;;;;;;;;;;5051230;28;20498;-73
2022/06/21 14:24:19;;;;;;;8.13;1.30;;;;;;;;;;5061680;28;20029;-73
2022/06/21 14:26:51;;;;;;;3.97;1.60;;;;;;;;;;5061143;28;20028;-72
2022/06/21 14:29:28;;;;;;;3.00;1.30;;;;;;;;;;5060803;28;20032;-71
2022/06/21 14:31:56;;;;;;;3.50;1.30;;;;;;;;;;5056222;28;20098;-72
2022/06/21 14:34:24;;;;;;;2.72;1.10;;;;;;;;;;5062162;28;20024;-72
2022/06/21 14:37:14;;;;;;;5.68;1.40;;;;;;;;;;5053523;28;20554;-71
2022/06/21 14:39:47;;;;;;;3.65;1.10;;;;;;;;;;5063666;28;20024;-72
2022/06/21 14:42:19;;;;;;;2.92;1.27;;;;;;;;;;5062775;28;20043;-72
2022/06/21 14:44:49;;;;;;;2.30;1.20;;;;;;;;;;5058677;28;20044;-72
2022/06/21 14:47:26;;;;;;;2.97;1.17;;;;;;;;;;5064846;28;20039;-74
2022/06/21 14:50:00;;;;;;;2.15;1.25;;;;;;;;;;5066006;28;20013;-72
2022/06/21 14:52:43;;;;;;;3.40;1.30;;;;;;;;;;5063432;28;20036;-71
2022/06/21 14:55:24;;;;;;;1.38;1.20;;;;;;;;;;5060636;28;20395;-71
2022/06/21 14:57:49;;;;;;;5.80;1.48;;;;;;;;;;5060427;28;20029;-73
2022/06/21 15:00:30;;;;;;;7.33;1.57;;;;;;;;;;5063882;28;20735;-73
2022/06/21 15:02:55;;;;;;;7.47;1.40;;;;;;;;;;5053657;28;20312;-69
2022/06/21 15:05:38;;;;;;;6.00;1.47;;;;;;;;;;5044590;28;20104;-73
2022/06/21 15:08:07;;;;;;;6.25;1.60;;;;;;;;;;5058787;28;20032;-71
2022/06/21 15:10:33;;;;;;;6.75;1.70;;;;;;;;;;5062101;28;20085;-73
2022/06/21 15:13:03;;;;;;;3.88;1.45;;;;;;;;;;5060918;28;20028;-72
2022/06/21 15:15:31;;;;;;;6.85;1.60;;;;;;;;;;5065307;28;20021;-72
2022/06/21 15:18:04;;;;;;;3.67;1.40;;;;;;;;;;5060872;28;20093;-71
2022/06/21 15:20:41;;;;;;;3.05;1.30;;;;;;;;;;5058907;28;20045;-71
2022/06/21 15:23:11;;;;;;;2.42;1.10;;;;;;;;;;5058576;28;20032;-72
2022/06/21 15:25:41;;;;;;;5.22;1.40;;;;;;;;;;5060811;28;20074;-72